Time;durP1;ratioP1;P1;durP2;ratioP2;P2;SDS_P1;SDS_P2;PMS_P1;PMS_P2;Temp;Humidity;BMP_temperature;BMP_pressure;BME280_temperature;BME280_humidity;BME280_pressure;Samples;Min_cycle;Max_cycle;Signal;HPM_P1;HPM_P2
2021/03/21 00:01:03;;;;;;;1.65;1.35;;;7.80;76.60;;;;;;4990856;28;20053;-87
2021/03/21 00:03:29;;;;;;;2.05;1.85;;;7.80;76.70;;;;;;4985580;28;20387;-87
2021/03/21 00:05:54;;;;;;;2.13;1.70;;;7.80;76.60;;;;;;4989119;28;20019;-86
2021/03/21 00:08:24;;;;;;;2.10;1.90;;;7.80;76.90;;;;;;4983664;28;20104;-86
2021/03/21 00:10:58;;;;;;;3.15;1.80;;;7.70;76.90;;;;;;4989729;28;20110;-86
2021/03/21 00:13:24;;;;;;;2.08;1.88;;;7.70;77.10;;;;;;4988996;28;20532;-87
2021/03/21 00:15:51;;;;;;;2.40;1.92;;;7.70;77.10;;;;;;4988068;28;20022;-88
2021/03/21 00:18:19;;;;;;;2.13;1.92;;;7.70;77.20;;;;;;4989636;28;20065;-87
2021/03/21 00:20:45;;;;;;;2.10;1.90;;;7.70;77.40;;;;;;4989955;28;20023;-87
2021/03/21 00:23:10;;;;;;;2.60;2.08;;;7.70;77.40;;;;;;4989719;28;20040;-87
2021/03/21 00:25:37;;;;;;;2.03;1.80;;;7.70;77.40;;;;;;4989489;28;20057;-87
2021/03/21 00:28:05;;;;;;;2.58;2.10;;;7.70;77.50;;;;;;4989151;28;20290;-88
2021/03/21 00:30:34;;;;;;;3.28;2.20;;;7.70;77.50;;;;;;4988661;28;20044;-89
2021/03/21 00:32:59;;;;;;;2.60;2.22;;;7.70;77.50;;;;;;4988023;28;20035;-89
2021/03/21 00:35:26;;;;;;;3.30;2.28;;;7.60;77.40;;;;;;4989899;28;20106;-89
2021/03/21 00:38:00;;;;;;;3.38;2.58;;;7.60;77.60;;;;;;4990974;28;20081;-88
2021/03/21 00:40:28;;;;;;;2.83;2.38;;;7.60;77.60;;;;;;4991478;28;20027;-87
2021/03/21 00:42:54;;;;;;;2.70;2.10;;;7.60;77.80;;;;;;4989918;28;20019;-88
2021/03/21 00:45:22;;;;;;;3.22;2.50;;;7.50;77.90;;;;;;4992404;28;20073;-89
2021/03/21 00:47:48;;;;;;;3.40;2.80;;;7.50;78.20;;;;;;4985564;28;20027;-88
2021/03/21 00:50:19;;;;;;;3.50;2.78;;;7.50;78.50;;;;;;4987237;28;20031;-89
2021/03/21 00:52:45;;;;;;;3.00;2.33;;;7.50;78.50;;;;;;4985830;28;20023;-87
2021/03/21 00:55:12;;;;;;;2.33;2.13;;;7.50;78.40;;;;;;4990475;28;20556;-87
2021/03/21 00:57:38;;;;;;;2.75;2.25;;;7.50;78.30;;;;;;4992177;28;20491;-88
2021/03/21 01:00:12;;;;;;;3.03;2.40;;;7.50;78.30;;;;;;4992473;28;20026;-87
2021/03/21 01:02:37;;;;;;;2.50;2.30;;;7.50;78.70;;;;;;4993641;28;20029;-87
2021/03/21 01:05:08;;;;;;;2.53;2.33;;;7.50;78.60;;;;;;4993600;28;20027;-87
2021/03/21 01:07:34;;;;;;;2.10;1.90;;;7.50;78.60;;;;;;4991453;28;20041;-86
2021/03/21 01:09:59;;;;;;;2.97;2.17;;;7.50;78.50;;;;;;4982837;28;20038;-88
2021/03/21 01:12:25;;;;;;;2.80;2.15;;;7.50;78.60;;;;;;4993859;28;20022;-86
2021/03/21 01:14:50;;;;;;;3.08;1.90;;;7.60;78.50;;;;;;4994210;28;20023;-88
2021/03/21 01:17:16;;;;;;;2.58;2.13;;;7.60;78.40;;;;;;4993100;28;20022;-88
2021/03/21 01:19:41;;;;;;;2.08;1.85;;;7.60;78.40;;;;;;4993559;28;20533;-88
2021/03/21 01:22:07;;;;;;;2.20;1.65;;;7.50;78.30;;;;;;4993732;28;20018;-88
2021/03/21 01:24:33;;;;;;;1.98;1.77;;;7.50;78.40;;;;;;4991999;28;20391;-86
2021/03/21 01:26:58;;;;;;;1.88;1.73;;;7.50;78.40;;;;;;4993189;28;20113;-87
2021/03/21 01:29:24;;;;;;;1.80;1.55;;;7.50;78.40;;;;;;4992393;28;20069;-86
2021/03/21 01:31:50;;;;;;;2.42;1.88;;;7.50;78.40;;;;;;4991409;28;20050;-86
2021/03/21 01:34:15;;;;;;;2.00;1.50;;;7.50;78.50;;;;;;4993170;28;20477;-86
2021/03/21 01:36:41;;;;;;;1.60;1.50;;;7.50;78.50;;;;;;4992092;28;20457;-85
2021/03/21 01:39:16;;;;;;;1.52;1.40;;;7.50;78.60;;;;;;4992439;28;20023;-87
2021/03/21 01:41:42;;;;;;;2.42;1.63;;;7.40;78.60;;;;;;4992672;28;20023;-86
2021/03/21 01:44:10;;;;;;;1.70;1.60;;;7.40;78.90;;;;;;4991911;28;20022;-86
2021/03/21 01:46:36;;;;;;;1.30;1.15;;;7.40;79.00;;;;;;4991569;28;20109;-86
2021/03/21 01:49:33;;;;;;;1.75;1.40;;;7.40;79.00;;;;;;4990856;28;20251;-86
2021/03/21 01:52:01;;;;;;;1.88;1.08;;;7.40;79.10;;;;;;4976097;28;20050;-86
2021/03/21 01:54:27;;;;;;;1.40;1.30;;;7.40;79.00;;;;;;4993132;28;20038;-86
2021/03/21 01:56:55;;;;;;;1.30;1.20;;;7.40;79.10;;;;;;4992614;28;20034;-87
2021/03/21 01:59:23;;;;;;;1.02;0.88;;;7.40;79.20;;;;;;4991426;28;20553;-88
2021/03/21 02:01:51;;;;;;;1.70;1.23;;;7.40;79.10;;;;;;4991371;28;20030;-87
2021/03/21 02:04:17;;;;;;;1.30;1.20;;;7.40;79.20;;;;;;4992750;28;20027;-86
2021/03/21 02:07:04;;;;;;;1.30;1.20;;;7.30;79.20;;;;;;4992462;28;20444;-88
2021/03/21 02:09:40;;;;;;;1.23;1.10;;;7.30;79.30;;;;;;4991092;28;20046;-88
2021/03/21 02:12:27;;;;;;;1.52;1.40;;;7.30;79.40;;;;;;4983771;28;20045;-89
2021/03/21 02:15:08;;;;;;;1.17;1.10;;;7.30;79.40;;;;;;4992353;28;20027;-87
2021/03/21 02:18:07;;;;;;;1.20;1.10;;;7.30;79.40;;;;;;4978710;28;20132;-87
2021/03/21 02:20:45;;;;;;;0.88;0.88;;;7.30;79.40;;;;;;4990081;28;20038;-87
2021/03/21 02:23:31;;;;;;;0.90;0.90;;;7.40;79.20;;;;;;4992860;28;20085;-88
2021/03/21 02:26:36;;;;;;;1.35;1.20;;;7.40;79.20;;;;;;4992112;28;20466;-88
2021/03/21 02:29:29;;;;;;;1.20;1.10;;;7.40;79.30;;;;;;4991096;28;20048;-87
2021/03/21 02:32:30;;;;;;;1.10;1.00;;;7.40;79.40;;;;;;4988852;28;20118;-87
2021/03/21 02:35:03;;;;;;;2.78;1.48;;;7.40;80.00;;;;;;4990911;28;20022;-87
2021/03/21 02:37:32;;;;;;;;;;;7.30;79.50;;;;;;4992093;28;20022;-88
2021/03/21 02:40:13;;;;;;;1.50;1.25;;;7.30;79.50;;;;;;4991585;28;19910;-88
2021/03/21 02:42:45;;;;;;;1.30;1.20;;;7.30;79.70;;;;;;4991668;28;20030;-87
2021/03/21 02:45:13;;;;;;;1.50;1.40;;;7.30;79.60;;;;;;4991783;28;20026;-88
2021/03/21 02:47:42;;;;;;;1.88;1.55;;;7.30;79.50;;;;;;4991342;28;20523;-87
2021/03/21 02:50:37;;;;;;;1.33;1.23;;;7.40;79.60;;;;;;4989521;28;20181;-88
2021/03/21 02:53:22;;;;;;;2.17;1.70;;;7.30;79.60;;;;;;4983138;28;20054;-87
2021/03/21 02:55:51;;;;;;;1.50;1.40;;;7.30;79.70;;;;;;4991228;28;20603;-88
2021/03/21 02:58:33;;;;;;;1.58;1.48;;;7.30;79.80;;;;;;4990454;28;20042;-86
2021/03/21 03:01:09;;;;;;;2.42;1.70;;;7.40;79.80;;;;;;4991866;28;20030;-88
2021/03/21 03:03:40;;;;;;;2.78;2.17;;;7.30;79.70;;;;;;4990280;28;20034;-88
2021/03/21 03:06:11;;;;;;;2.17;1.98;;;7.30;79.80;;;;;;4991696;28;20389;-87
2021/03/21 03:08:42;;;;;;;1.70;1.60;;;7.30;80.00;;;;;;4990758;28;20022;-88
2021/03/21 03:11:17;;;;;;;2.40;2.20;;;7.30;79.90;;;;;;4991444;28;20049;-86
2021/03/21 03:13:47;;;;;;;2.47;1.88;;;7.40;79.90;;;;;;4991230;28;20063;-88
2021/03/21 03:16:24;;;;;;;2.17;1.92;;;7.40;80.50;;;;;;4989504;28;20022;-88
2021/03/21 03:19:01;;;;;;;1.85;1.73;;;7.40;79.80;;;;;;4988197;28;20029;-87
2021/03/21 03:21:59;;;;;;;1.67;1.58;;;7.40;79.80;;;;;;4991431;28;20115;-88
2021/03/21 03:24:37;;;;;;;2.55;2.35;;;7.50;79.70;;;;;;4979456;28;20031;-88
2021/03/21 03:27:18;;;;;;;3.20;2.65;;;7.40;79.80;;;;;;4987348;28;20049;-88
2021/03/21 03:29:50;;;;;;;4.15;2.50;;;7.40;80.00;;;;;;4990328;28;20047;-87
2021/03/21 03:32:16;;;;;;;3.65;3.15;;;7.40;80.20;;;;;;4991545;28;20030;-87
2021/03/21 03:34:46;;;;;;;3.58;2.72;;;7.30;80.40;;;;;;4991902;28;20026;-86
2021/03/21 03:37:13;;;;;;;3.05;2.40;;;7.30;80.60;;;;;;4990442;28;20026;-86
2021/03/21 03:39:40;;;;;;;2.72;2.53;;;7.30;80.70;;;;;;4990310;28;20069;-87
2021/03/21 03:42:14;;;;;;;2.90;2.42;;;7.40;80.70;;;;;;4989296;28;20058;-86
2021/03/21 03:45:00;;;;;;;2.83;2.42;;;7.40;80.70;;;;;;4987102;28;20029;-85
2021/03/21 03:47:34;;;;;;;3.20;2.80;;;7.40;80.70;;;;;;4990454;28;20034;-87
2021/03/21 03:50:19;;;;;;;3.63;3.00;;;7.30;80.70;;;;;;4990642;28;20125;-87
2021/03/21 03:53:02;;;;;;;3.10;2.65;;;7.40;80.80;;;;;;4987932;28;20381;-87
2021/03/21 03:55:40;;;;;;;3.65;3.00;;;7.30;80.90;;;;;;4990304;28;20022;-88
2021/03/21 03:58:20;;;;;;;3.75;3.15;;;7.40;81.10;;;;;;4989457;28;20018;-88
2021/03/21 04:00:51;;;;;;;3.95;2.83;;;7.30;81.20;;;;;;4988619;28;20711;-85
2021/03/21 04:03:39;;;;;;;3.72;3.15;;;7.30;81.40;;;;;;4991060;28;20022;-87
2021/03/21 04:06:14;;;;;;;3.20;2.53;;;7.30;81.50;;;;;;4991361;28;20121;-89
2021/03/21 04:09:00;;;;;;;4.03;3.13;;;7.30;81.40;;;;;;4990237;28;20033;-89
2021/03/21 04:11:51;;;;;;;3.90;3.40;;;7.30;81.50;;;;;;4988323;28;20121;-89
2021/03/21 04:14:19;;;;;;;4.53;3.13;;;7.30;81.60;;;;;;4990794;28;20038;-88
2021/03/21 04:17:21;;;;;;;5.35;3.80;;;7.40;81.70;;;;;;4991048;28;20434;-88
2021/03/21 04:19:54;;;;;;;3.75;2.83;;;7.30;81.90;;;;;;4987904;28;20477;-88
2021/03/21 04:22:47;;;;;;;5.03;3.38;;;7.30;81.80;;;;;;4989893;28;20066;-88
2021/03/21 04:25:22;;;;;;;4.65;3.40;;;7.30;81.90;;;;;;4990182;28;20564;-86
2021/03/21 04:28:22;;;;;;;3.55;2.83;;;7.30;81.90;;;;;;4992529;28;20030;-87
2021/03/21 04:30:56;;;;;;;4.32;2.97;;;7.30;81.90;;;;;;4985455;28;20061;-89
2021/03/21 04:33:26;;;;;;;4.10;2.95;;;7.40;82.60;;;;;;4993620;28;20019;-88
2021/03/21 04:36:18;;;;;;;3.72;3.05;;;7.40;81.80;;;;;;4994767;28;20022;-87
2021/03/21 04:38:45;;;;;;;4.93;3.88;;;7.50;81.70;;;;;;4993136;28;20481;-88
2021/03/21 04:41:16;;;;;;;5.63;3.47;;;7.40;81.60;;;;;;4993815;28;20468;-87
2021/03/21 04:43:49;;;;;;;4.38;3.33;;;7.50;82.00;;;;;;4994555;28;20034;-87
2021/03/21 04:46:21;;;;;;;5.90;4.00;;;7.50;81.70;;;;;;4993515;28;20085;-87
2021/03/21 04:48:47;;;;;;;5.47;3.67;;;7.50;81.90;;;;;;4993380;28;20041;-87
2021/03/21 04:51:20;;;;;;;5.45;3.80;;;7.40;81.90;;;;;;4992061;28;20026;-87
2021/03/21 04:53:52;;;;;;;4.80;3.45;;;7.40;81.90;;;;;;4994628;28;20033;-89
2021/03/21 04:56:36;;;;;;;5.35;3.70;;;7.50;81.80;;;;;;4993768;28;20121;-89
2021/03/21 04:59:14;;;;;;;5.40;3.75;;;7.50;81.80;;;;;;4993551;28;20022;-89
2021/03/21 05:01:54;;;;;;;5.82;4.28;;;7.50;81.80;;;;;;4993187;28;20034;-89
2021/03/21 05:04:30;;;;;;;4.85;3.50;;;7.50;81.80;;;;;;4982913;28;20385;-88
2021/03/21 05:07:02;;;;;;;5.28;3.83;;;7.50;81.80;;;;;;4993255;28;20034;-88
2021/03/21 05:09:47;;;;;;;6.82;3.55;;;7.50;81.80;;;;;;4992921;28;20096;-89
2021/03/21 05:12:22;;;;;;;6.88;3.80;;;7.50;81.80;;;;;;4989122;28;20092;-88
2021/03/21 05:15:25;;;;;;;5.53;3.60;;;7.50;81.80;;;;;;4995069;28;20023;-89
2021/03/21 05:18:03;;;;;;;6.00;3.83;;;7.60;81.80;;;;;;4985217;28;20092;-89
2021/03/21 05:20:41;;;;;;;5.55;3.70;;;7.60;81.70;;;;;;4995827;28;20029;-88
2021/03/21 05:23:12;;;;;;;6.32;3.80;;;7.60;81.60;;;;;;4975058;28;20118;-91
2021/03/21 05:25:47;;;;;;;5.85;3.67;;;7.60;81.60;;;;;;4993523;28;20026;-90
2021/03/21 05:28:20;;;;;;;10.80;5.57;;;7.60;81.60;;;;;;4994270;28;20105;-90
2021/03/21 05:30:45;;;;;;;5.60;3.70;;;7.60;81.60;;;;;;4992449;28;20548;-89
2021/03/21 05:33:11;;;;;;;4.78;3.33;;;7.50;81.60;;;;;;4993793;28;20152;-89
2021/03/21 05:35:39;;;;;;;6.15;3.70;;;7.60;81.60;;;;;;4994270;28;20032;-88
2021/03/21 05:38:39;;;;;;;4.57;3.20;;;7.60;81.60;;;;;;4993228;28;20027;-87
2021/03/21 05:41:29;;;;;;;7.25;3.53;;;7.60;81.60;;;;;;4995503;28;20485;-89
2021/03/21 05:44:25;;;;;;;7.68;3.10;;;7.50;81.50;;;;;;4982584;28;20763;-90
2021/03/21 05:47:03;;;;;;;5.03;3.10;;;7.50;81.60;;;;;;4975917;28;20038;-87
2021/03/21 05:49:49;;;;;;;5.30;2.92;;;7.50;81.40;;;;;;4983110;28;20037;-87
2021/03/21 05:52:33;;;;;;;6.22;2.80;;;7.50;81.50;;;;;;4993107;28;20041;-87
2021/03/21 05:55:26;;;;;;;4.85;2.65;;;7.50;81.40;;;;;;4994196;28;20026;-88
2021/03/21 05:58:19;;;;;;;7.72;2.75;;;7.50;81.40;;;;;;4993948;28;20377;-89
2021/03/21 06:01:06;;;;;;;2.78;1.50;;;7.50;81.30;;;;;;4993380;28;20700;-89
2021/03/21 06:03:32;;;;;;;3.40;1.70;;;7.50;81.20;;;;;;4980073;28;20485;-89
2021/03/21 06:06:22;;;;;;;4.78;1.50;;;7.50;81.20;;;;;;4994936;28;20049;-90
2021/03/21 06:09:17;;;;;;;3.30;1.48;;;7.50;81.20;;;;;;4993878;28;20438;-87
2021/03/21 06:12:14;;;;;;;2.70;1.30;;;7.50;81.10;;;;;;4982138;28;20065;-87
2021/03/21 06:15:05;;;;;;;4.43;1.52;;;7.50;81.20;;;;;;4993863;28;20030;-89
2021/03/21 06:17:51;;;;;;;3.22;1.40;;;7.40;81.80;;;;;;4995228;28;20057;-88
2021/03/21 06:20:43;;;;;;;6.20;1.40;;;7.40;81.30;;;;;;4989760;28;20438;-90
2021/03/21 06:23:36;;;;;;;2.00;1.00;;;7.40;81.40;;;;;;4993490;28;20026;-91
2021/03/21 06:26:20;;;;;;;3.60;1.40;;;7.40;81.50;;;;;;4991449;28;20034;-91
2021/03/21 06:29:16;;;;;;;5.68;1.10;;;7.40;81.40;;;;;;4992350;28;20038;-90
2021/03/21 06:31:47;;;;;;;4.70;1.38;;;7.40;82.10;;;;;;4992001;28;20043;-90
2021/03/21 06:34:52;;;;;;;3.72;1.10;;;7.40;81.60;;;;;;4994066;28;20469;-90
2021/03/21 06:37:39;;;;;;;3.15;0.95;;;7.40;81.70;;;;;;4992677;28;20030;-90
2021/03/21 06:40:21;;;;;;;4.07;1.23;;;7.40;81.70;;;;;;4994182;28;20027;-90
2021/03/21 06:43:15;;;;;;;4.18;1.15;;;7.40;81.80;;;;;;4994205;28;20026;-91
2021/03/21 06:46:04;;;;;;;3.30;1.38;;;7.40;82.00;;;;;;4991149;28;20033;-90
2021/03/21 06:48:49;;;;;;;3.42;1.20;;;7.40;82.00;;;;;;4993512;28;20389;-90
2021/03/21 06:51:40;;;;;;;3.70;1.40;;;7.40;82.00;;;;;;4972930;28;20050;-90
2021/03/21 06:54:33;;;;;;;3.63;1.30;;;7.40;82.30;;;;;;4984523;28;20527;-89
2021/03/21 06:57:37;;;;;;;2.97;1.25;;;7.40;82.30;;;;;;4989329;28;20034;-89
2021/03/21 07:00:17;;;;;;;3.88;1.10;;;7.40;82.10;;;;;;4993064;28;20506;-89
2021/03/21 07:03:06;;;;;;;4.40;1.15;;;7.40;82.10;;;;;;4982416;28;20031;-88
2021/03/21 07:05:40;;;;;;;4.72;1.33;;;7.40;82.10;;;;;;4991937;28;20030;-88
2021/03/21 07:08:27;;;;;;;3.58;1.00;;;7.40;82.00;;;;;;4988256;28;20080;-88
2021/03/21 07:11:30;;;;;;;2.85;0.80;;;7.50;82.00;;;;;;4993510;28;20535;-89
2021/03/21 07:13:56;;;;;;;4.18;1.13;;;7.50;82.00;;;;;;4993289;28;20050;-88
2021/03/21 07:16:58;;;;;;;4.38;1.17;;;7.50;81.80;;;;;;4993021;28;20038;-89
2021/03/21 07:19:56;;;;;;;4.80;1.45;;;7.50;81.80;;;;;;4991960;28;20022;-90
2021/03/21 07:22:46;;;;;;;4.07;1.02;;;7.50;81.60;;;;;;4989802;28;20023;-91
2021/03/21 07:25:46;;;;;;;2.10;0.90;;;7.60;81.60;;;;;;4993422;28;20165;-91
2021/03/21 07:28:32;;;;;;;2.83;1.00;;;7.60;81.50;;;;;;4990402;28;20026;-90
2021/03/21 07:31:13;;;;;;;2.28;0.88;;;7.60;81.30;;;;;;4991353;28;20065;-90
2021/03/21 07:33:44;;;;;;;4.13;1.08;;;7.60;81.20;;;;;;4992472;28;20224;-89
2021/03/21 07:36:24;;;;;;;3.42;1.00;;;7.70;81.00;;;;;;4990993;28;20502;-89
2021/03/21 07:39:05;;;;;;;4.93;1.27;;;7.70;80.80;;;;;;4991988;28;20381;-89
2021/03/21 07:41:48;;;;;;;4.80;1.40;;;7.80;80.70;;;;;;4991579;28;20037;-88
2021/03/21 07:44:25;;;;;;;4.95;1.13;;;7.90;80.40;;;;;;4992741;28;20434;-89
2021/03/21 07:47:28;;;;;;;4.47;1.00;;;8.00;80.20;;;;;;4972903;28;20031;-89
2021/03/21 07:50:12;;;;;;;3.88;1.10;;;8.00;80.00;;;;;;4974747;28;20042;-91
2021/03/21 07:52:52;;;;;;;3.72;1.30;;;8.10;79.60;;;;;;4991918;28;20030;-91
2021/03/21 07:55:41;;;;;;;4.50;1.17;;;8.10;79.30;;;;;;4987844;28;20466;-89
2021/03/21 07:58:15;;;;;;;5.72;1.30;;;8.10;79.20;;;;;;4982449;28;20026;-89
2021/03/21 08:00:41;;;;;;;6.68;1.25;;;8.10;79.00;;;;;;4988977;28;20049;-89
2021/03/21 08:03:19;;;;;;;5.88;1.23;;;8.10;78.60;;;;;;4980698;28;20027;-90
2021/03/21 08:05:44;;;;;;;7.90;1.73;;;8.20;78.50;;;;;;4991687;28;20034;-91
2021/03/21 08:08:15;;;;;;;5.40;1.23;;;8.20;78.20;;;;;;4991331;28;20034;-89
2021/03/21 08:10:42;;;;;;;8.32;1.75;;;8.20;78.10;;;;;;4991717;28;20572;-89
2021/03/21 08:13:36;;;;;;;3.95;1.20;;;8.20;77.80;;;;;;4992549;28;20445;-90
2021/03/21 08:16:02;;;;;;;5.82;1.70;;;8.20;77.70;;;;;;4985738;28;20065;-91
2021/03/21 08:18:34;;;;;;;6.25;1.50;;;8.20;77.40;;;;;;4992270;28;20027;-89
2021/03/21 08:21:01;;;;;;;;;;;8.30;77.20;;;;;;4992415;28;20049;-92
2021/03/21 08:23:36;;;;;;;10.63;2.10;;;8.30;77.40;;;;;;4990857;28;19949;-92
2021/03/21 08:26:07;;;;;;;12.07;2.33;;;8.40;76.30;;;;;;4990983;28;20022;-88
2021/03/21 08:28:36;;;;;;;10.40;2.15;;;8.40;75.80;;;;;;4984261;28;20025;-89
2021/03/21 08:31:08;;;;;;;12.32;2.42;;;8.40;75.20;;;;;;4989656;28;20038;-88
2021/03/21 08:33:39;;;;;;;12.15;2.05;;;8.30;74.60;;;;;;4986466;28;20019;-89
2021/03/21 08:36:08;;;;;;;12.95;2.60;;;8.30;74.70;;;;;;4981864;28;20038;-88
2021/03/21 08:38:35;;;;;;;11.70;2.10;;;8.40;74.30;;;;;;4986883;28;20034;-87
2021/03/21 08:41:04;;;;;;;10.88;2.22;;;8.30;74.00;;;;;;4986908;28;20037;-87
2021/03/21 08:43:33;;;;;;;13.20;2.70;;;8.40;73.90;;;;;;4984025;28;20034;-88
2021/03/21 08:46:01;;;;;;;13.32;2.28;;;8.40;73.60;;;;;;4982038;28;20026;-86
2021/03/21 08:48:38;;;;;;;14.77;2.70;;;8.40;73.10;;;;;;4987140;28;20030;-87
2021/03/21 08:51:04;;;;;;;14.38;2.72;;;8.40;72.80;;;;;;4989588;28;20057;-89
2021/03/21 08:53:38;;;;;;;10.55;2.33;;;8.40;72.80;;;;;;4983179;28;20461;-88
2021/03/21 08:56:10;;;;;;;12.23;2.72;;;8.40;72.30;;;;;;4981608;28;20177;-87
2021/03/21 08:58:36;;;;;;;11.75;2.35;;;8.30;72.10;;;;;;4980304;28;20117;-88
2021/03/21 09:01:28;;;;;;;13.18;2.70;;;8.30;71.70;;;;;;4984080;28;20158;-88
2021/03/21 09:04:12;;;;;;;11.80;2.67;;;8.30;71.60;;;;;;4987337;28;20038;-89
2021/03/21 09:06:43;;;;;;;12.65;2.78;;;8.30;71.50;;;;;;4989702;28;20022;-88
2021/03/21 09:09:26;;;;;;;13.77;3.25;;;8.20;71.20;;;;;;4989798;28;20034;-88
2021/03/21 09:11:55;;;;;;;17.50;3.13;;;8.30;71.30;;;;;;4987145;28;20034;-88
2021/03/21 09:14:24;;;;;;;9.20;2.53;;;8.40;70.80;;;;;;4993274;28;20027;-90
2021/03/21 09:16:55;;;;;;;12.40;3.30;;;8.40;70.10;;;;;;4995932;28;20034;-90
2021/03/21 09:19:26;;;;;;;10.45;2.83;;;8.50;69.70;;;;;;4994371;28;20515;-90
2021/03/21 09:21:52;;;;;;;12.70;2.72;;;8.50;69.30;;;;;;4995958;28;20019;-90
2021/03/21 09:24:27;;;;;;;13.65;2.95;;;8.60;68.90;;;;;;4990112;28;20026;-90
2021/03/21 09:26:53;;;;;;;8.65;2.20;;;8.50;68.50;;;;;;4992066;28;20014;-90
2021/03/21 09:29:30;;;;;;;12.20;2.67;;;8.70;68.90;;;;;;4994051;28;20504;-90
2021/03/21 09:32:03;;;;;;;15.55;3.53;;;8.80;68.60;;;;;;4995360;28;20034;-89
2021/03/21 09:34:35;;;;;;;13.60;2.88;;;8.80;67.30;;;;;;4987577;28;20018;-87
2021/03/21 09:37:10;;;;;;;14.60;3.75;;;8.80;66.80;;;;;;4992802;28;20034;-86
2021/03/21 09:39:42;;;;;;;20.50;3.83;;;8.70;65.60;;;;;;4987071;28;20045;-86
2021/03/21 09:42:13;;;;;;;13.18;2.90;;;8.70;65.40;;;;;;4989121;28;20026;-86
2021/03/21 09:44:43;;;;;;;12.68;2.72;;;8.70;65.50;;;;;;4988101;28;20428;-86
2021/03/21 09:47:52;;;;;;;16.92;3.30;;;8.80;65.70;;;;;;4984872;28;21219;-86
2021/03/21 09:50:47;;;;;;;12.25;3.33;;;8.80;65.40;;;;;;4951535;28;20140;-86
2021/03/21 09:53:37;;;;;;;16.30;2.88;;;8.80;65.40;;;;;;4992795;28;20060;-86
2021/03/21 09:56:24;;;;;;;9.65;2.67;;;8.80;65.30;;;;;;4990747;28;20535;-86
2021/03/21 09:59:07;;;;;;;10.93;2.45;;;8.80;64.90;;;;;;4992995;28;20551;-86
2021/03/21 10:02:08;;;;;;;9.73;2.50;;;8.90;65.00;;;;;;4979140;28;20299;-88
2021/03/21 10:04:43;;;;;;;11.25;2.58;;;8.90;64.90;;;;;;4971633;28;20034;-87
2021/03/21 10:07:22;;;;;;;11.77;2.92;;;8.90;64.60;;;;;;4984598;28;20440;-88
2021/03/21 10:09:49;;;;;;;10.93;2.45;;;8.90;64.30;;;;;;4989198;28;20034;-88
2021/03/21 10:12:16;;;;;;;13.63;3.33;;;8.90;65.10;;;;;;4991139;28;20162;-88
2021/03/21 10:14:47;;;;;;;12.80;3.10;;;8.90;63.90;;;;;;4986762;28;20093;-88
2021/03/21 10:17:18;;;;;;;11.02;2.78;;;8.90;63.70;;;;;;4986249;28;20037;-88
2021/03/21 10:19:47;;;;;;;13.27;2.80;;;8.80;63.60;;;;;;4990709;28;20030;-88
2021/03/21 10:22:18;;;;;;;11.73;2.38;;;8.90;63.70;;;;;;4991348;28;20601;-87
2021/03/21 10:24:48;;;;;;;9.52;2.20;;;9.00;64.00;;;;;;4987795;28;20168;-89
2021/03/21 10:27:14;;;;;;;13.32;3.35;;;9.20;63.90;;;;;;4990980;28;20030;-87
2021/03/21 10:29:40;;;;;;;12.05;2.85;;;9.10;62.60;;;;;;4988878;28;20038;-89
2021/03/21 10:32:26;;;;;;;12.70;2.88;;;9.10;62.60;;;;;;4987778;28;20449;-88
2021/03/21 10:34:54;;;;;;;13.25;2.92;;;9.10;62.60;;;;;;4987734;28;20027;-88
2021/03/21 10:37:42;;;;;;;8.63;2.47;;;9.10;62.50;;;;;;4984757;28;20035;-87
2021/03/21 10:40:24;;;;;;;16.58;3.80;;;9.20;62.80;;;;;;4985728;28;20090;-87
2021/03/21 10:43:32;;;;;;;15.35;3.10;;;9.20;62.70;;;;;;4981057;28;20125;-88
2021/03/21 10:45:58;;;;;;;7.38;2.05;;;9.20;62.70;;;;;;4976066;28;20029;-89
2021/03/21 10:48:26;;;;;;;11.40;2.95;;;9.20;63.20;;;;;;4980383;28;20030;-89
2021/03/21 10:50:55;;;;;;;10.27;2.67;;;9.30;63.10;;;;;;4975133;28;20063;-89
2021/03/21 10:53:31;;;;;;;9.50;2.53;;;9.20;62.90;;;;;;4984699;28;20113;-89
2021/03/21 10:56:14;;;;;;;8.23;2.40;;;9.30;63.10;;;;;;4982964;28;20049;-87
2021/03/21 10:58:48;;;;;;;10.68;2.38;;;9.40;63.30;;;;;;4981170;28;20085;-88
2021/03/21 11:01:20;;;;;;;12.88;2.60;;;9.50;62.90;;;;;;4982660;28;20054;-88
2021/03/21 11:03:55;;;;;;;14.13;3.27;;;9.50;62.50;;;;;;4983480;28;20022;-89
2021/03/21 11:06:22;;;;;;;11.82;2.95;;;9.40;61.90;;;;;;4984570;28;20305;-87
2021/03/21 11:08:49;;;;;;;11.23;3.13;;;9.40;62.10;;;;;;4984023;28;20371;-88
2021/03/21 11:11:21;;;;;;;8.25;2.45;;;9.40;62.30;;;;;;4986665;28;20034;-88
2021/03/21 11:13:48;;;;;;;12.73;2.97;;;9.50;62.50;;;;;;4984270;28;20440;-89
2021/03/21 11:16:24;;;;;;;14.90;3.38;;;9.50;62.70;;;;;;4988178;28;20025;-89
2021/03/21 11:19:02;;;;;;;10.20;2.72;;;9.50;62.20;;;;;;4990500;28;20077;-88
2021/03/21 11:21:32;;;;;;;8.07;2.22;;;9.50;62.10;;;;;;4987987;28;20097;-89
2021/03/21 11:24:33;;;;;;;10.15;2.60;;;9.60;62.20;;;;;;4986296;28;20816;-89
2021/03/21 11:27:04;;;;;;;13.88;3.22;;;9.70;61.90;;;;;;4985472;28;20381;-90
2021/03/21 11:29:34;;;;;;;19.42;3.40;;;9.80;61.00;;;;;;4984513;28;20445;-89
2021/03/21 11:32:13;;;;;;;10.70;2.50;;;9.70;60.10;;;;;;4980989;28;20031;-89
2021/03/21 11:34:39;;;;;;;14.70;3.15;;;9.80;60.60;;;;;;4980193;28;20027;-90
2021/03/21 11:37:19;;;;;;;15.95;2.83;;;9.70;59.90;;;;;;4985944;28;20049;-89
2021/03/21 11:39:52;;;;;;;12.18;3.30;;;9.70;59.90;;;;;;4984921;28;20085;-88
2021/03/21 11:42:20;;;;;;;13.85;2.90;;;9.70;60.00;;;;;;4986492;28;20385;-90
2021/03/21 11:44:48;;;;;;;10.45;2.67;;;9.70;59.60;;;;;;4986304;28;20030;-90
2021/03/21 11:47:24;;;;;;;12.55;2.70;;;9.60;59.40;;;;;;4988867;28;20015;-90
2021/03/21 11:49:50;;;;;;;11.20;3.00;;;9.70;59.70;;;;;;4988576;28;20045;-89
2021/03/21 11:52:18;;;;;;;13.65;3.25;;;9.80;59.80;;;;;;4987745;28;20527;-90
2021/03/21 11:54:44;;;;;;;11.35;2.92;;;9.80;59.80;;;;;;4985907;28;20027;-88
2021/03/21 11:57:49;;;;;;;8.20;2.20;;;9.80;59.70;;;;;;4989583;28;20476;-91
2021/03/21 12:08:07;;;;;;;12.50;2.80;;;10.10;59.50;;;;;;4927225;29;20040;-96
2021/03/21 12:10:39;;;;;;;12.55;2.80;;;10.00;59.00;;;;;;4960281;28;20053;-93
2021/03/21 12:13:36;;;;;;;10.23;2.47;;;9.90;59.70;;;;;;4984110;28;20396;-92
2021/03/21 12:19:26;;;;;;;9.20;2.40;;;9.90;60.00;;;;;;4984327;28;20041;-90
2021/03/21 12:40:36;;;;;;;14.23;2.97;;;9.70;59.60;;;;;;4905644;29;20040;-90
2021/03/21 12:43:28;;;;;;;12.50;3.17;;;9.70;59.60;;;;;;4946658;28;20031;-90
2021/03/21 12:46:09;;;;;;;10.50;2.88;;;9.60;59.70;;;;;;4942776;28;20384;-92
2021/03/21 12:48:48;;;;;;;11.32;2.85;;;9.50;59.80;;;;;;4959969;28;20026;-90
2021/03/21 12:51:34;;;;;;;12.38;2.67;;;9.40;59.90;;;;;;4951685;28;20442;-90
2021/03/21 12:54:01;;;;;;;12.30;2.60;;;9.40;59.80;;;;;;4952717;28;20031;-88
2021/03/21 12:56:27;;;;;;;13.45;3.08;;;9.40;60.00;;;;;;4952293;28;20038;-89
2021/03/21 12:58:53;;;;;;;10.40;2.80;;;9.40;59.90;;;;;;4965992;28;20492;-89
2021/03/21 13:01:20;;;;;;;12.90;2.97;;;9.50;59.90;;;;;;4970607;28;20185;-90
2021/03/21 13:03:46;;;;;;;14.52;3.13;;;9.60;59.70;;;;;;4952065;28;20023;-89
2021/03/21 13:06:13;;;;;;;11.93;3.05;;;9.60;59.60;;;;;;4955357;28;20026;-90
2021/03/21 13:08:38;;;;;;;11.15;2.70;;;9.60;59.50;;;;;;4972566;28;20023;-90
2021/03/21 13:11:06;;;;;;;18.05;3.60;;;9.60;59.20;;;;;;4969257;28;20046;-89
2021/03/21 13:13:34;;;;;;;12.52;3.00;;;9.70;58.90;;;;;;4977749;28;20027;-90
2021/03/21 13:16:00;;;;;;;15.23;3.35;;;9.60;58.70;;;;;;4966786;28;20028;-90
2021/03/21 13:18:26;;;;;;;10.23;3.45;;;9.70;58.80;;;;;;4952421;28;20031;-89
2021/03/21 13:20:55;;;;;;;14.13;2.95;;;9.50;58.30;;;;;;4954767;28;20045;-91
2021/03/21 13:23:26;;;;;;;12.48;3.08;;;9.50;58.60;;;;;;4939928;28;20489;-89
2021/03/21 13:25:51;;;;;;;15.60;2.83;;;9.60;58.70;;;;;;4955241;28;20126;-90
2021/03/21 13:28:18;;;;;;;8.77;2.03;;;9.60;58.90;;;;;;4972343;28;20098;-88
2021/03/21 13:30:46;;;;;;;12.43;2.75;;;9.70;59.10;;;;;;4972721;28;20126;-90
2021/03/21 13:33:25;;;;;;;10.48;2.58;;;9.80;58.90;;;;;;4969930;28;20058;-89
2021/03/21 13:35:52;;;;;;;10.88;2.65;;;9.90;59.10;;;;;;4951867;28;20053;-89
2021/03/21 13:38:19;;;;;;;14.13;3.40;;;9.90;59.10;;;;;;4953771;28;20031;-88
2021/03/21 13:40:45;;;;;;;15.02;3.35;;;9.90;59.10;;;;;;4968206;28;20492;-90
2021/03/21 13:43:12;;;;;;;13.27;3.53;;;9.80;58.80;;;;;;4975050;28;20027;-90
2021/03/21 13:45:40;;;;;;;11.07;2.33;;;9.80;59.00;;;;;;4975810;28;20109;-91
2021/03/21 13:48:07;;;;;;;12.77;2.95;;;9.80;59.20;;;;;;4974156;28;20038;-89
2021/03/21 13:50:34;;;;;;;11.90;2.70;;;9.80;59.30;;;;;;4973276;28;20035;-88
2021/03/21 13:53:01;;;;;;;9.30;2.38;;;9.80;59.10;;;;;;4970757;28;20031;-89
2021/03/21 13:55:31;;;;;;;11.02;2.65;;;9.90;59.30;;;;;;4968808;28;20402;-90
2021/03/21 13:58:01;;;;;;;7.93;2.47;;;9.90;59.20;;;;;;4955362;28;20038;-90
2021/03/21 14:00:28;;;;;;;10.63;2.80;;;9.90;59.30;;;;;;4979415;28;20325;-90
2021/03/21 14:02:53;;;;;;;13.98;3.25;;;9.80;59.10;;;;;;4968290;28;20023;-92
2021/03/21 14:05:20;;;;;;;13.05;3.05;;;9.70;59.40;;;;;;4957573;28;20099;-89
2021/03/21 14:07:46;;;;;;;8.90;3.03;;;9.60;59.30;;;;;;4974579;28;20035;-91